sensor_id;sensor_type;location;lat;lon;timestamp;P1;durP1;ratioP1;P2;durP2;ratioP2
51692;SDS011;37777;53.066;21.638;2023-03-14T00:06:51;8.93;;;5.97;;
51692;SDS011;37777;53.066;21.638;2023-03-14T00:13:55;7.95;;;5.80;;
51692;SDS011;37777;53.066;21.638;2023-03-14T00:21:01;10.20;;;6.25;;
51692;SDS011;37777;53.066;21.638;2023-03-14T00:28:08;8.38;;;5.93;;
51692;SDS011;37777;53.066;21.638;2023-03-14T00:35:13;11.93;;;6.80;;
51692;SDS011;37777;53.066;21.638;2023-03-14T00:42:18;11.88;;;7.50;;
51692;SDS011;37777;53.066;21.638;2023-03-14T00:49:24;8.65;;;5.82;;
51692;SDS011;37777;53.066;21.638;2023-03-14T00:56:29;8.48;;;5.95;;
51692;SDS011;37777;53.066;21.638;2023-03-14T01:03:33;10.13;;;6.35;;
51692;SDS011;37777;53.066;21.638;2023-03-14T01:10:39;10.02;;;6.75;;
51692;SDS011;37777;53.066;21.638;2023-03-14T01:17:44;8.90;;;6.07;;
51692;SDS011;37777;53.066;21.638;2023-03-14T01:24:50;8.40;;;5.65;;
51692;SDS011;37777;53.066;21.638;2023-03-14T01:31:53;12.23;;;6.10;;
51692;SDS011;37777;53.066;21.638;2023-03-14T01:38:56;8.90;;;6.10;;
51692;SDS011;37777;53.066;21.638;2023-03-14T01:53:11;35.13;;;31.75;;
51692;SDS011;37777;53.066;21.638;2023-03-14T02:00:21;25.70;;;23.25;;
51692;SDS011;37777;53.066;21.638;2023-03-14T02:14:51;8.52;;;6.15;;
51692;SDS011;37777;53.066;21.638;2023-03-14T02:22:07;10.13;;;6.28;;
51692;SDS011;37777;53.066;21.638;2023-03-14T02:29:17;9.75;;;6.05;;
51692;SDS011;37777;53.066;21.638;2023-03-14T02:36:20;12.20;;;6.72;;
51692;SDS011;37777;53.066;21.638;2023-03-14T02:43:24;11.05;;;6.03;;
51692;SDS011;37777;53.066;21.638;2023-03-14T02:50:29;10.80;;;6.20;;
51692;SDS011;37777;53.066;21.638;2023-03-14T02:57:35;10.55;;;5.93;;
51692;SDS011;37777;53.066;21.638;2023-03-14T03:04:38;11.93;;;6.32;;
51692;SDS011;37777;53.066;21.638;2023-03-14T03:11:41;11.80;;;5.95;;
51692;SDS011;37777;53.066;21.638;2023-03-14T03:18:44;8.82;;;6.10;;
51692;SDS011;37777;53.066;21.638;2023-03-14T03:25:49;11.20;;;6.10;;
51692;SDS011;37777;53.066;21.638;2023-03-14T03:32:52;10.13;;;6.40;;
51692;SDS011;37777;53.066;21.638;2023-03-14T03:39:54;10.63;;;4.97;;
51692;SDS011;37777;53.066;21.638;2023-03-14T03:46:56;6.65;;;4.93;;
51692;SDS011;37777;53.066;21.638;2023-03-14T03:53:58;12.07;;;6.22;;
51692;SDS011;37777;53.066;21.638;2023-03-14T04:01:00;9.73;;;5.68;;
51692;SDS011;37777;53.066;21.638;2023-03-14T04:08:03;13.85;;;6.50;;
51692;SDS011;37777;53.066;21.638;2023-03-14T04:15:06;11.80;;;5.72;;
51692;SDS011;37777;53.066;21.638;2023-03-14T04:22:08;9.52;;;6.03;;
51692;SDS011;37777;53.066;21.638;2023-03-14T04:29:10;6.63;;;4.80;;
51692;SDS011;37777;53.066;21.638;2023-03-14T04:36:13;11.23;;;5.05;;
51692;SDS011;37777;53.066;21.638;2023-03-14T04:43:15;9.85;;;5.95;;
51692;SDS011;37777;53.066;21.638;2023-03-14T04:50:18;12.75;;;6.35;;
51692;SDS011;37777;53.066;21.638;2023-03-14T04:57:20;8.55;;;6.03;;
51692;SDS011;37777;53.066;21.638;2023-03-14T05:04:22;11.32;;;6.60;;
51692;SDS011;37777;53.066;21.638;2023-03-14T05:11:24;11.65;;;6.70;;
51692;SDS011;37777;53.066;21.638;2023-03-14T05:18:26;16.38;;;7.13;;
51692;SDS011;37777;53.066;21.638;2023-03-14T05:25:28;9.43;;;5.47;;
51692;SDS011;37777;53.066;21.638;2023-03-14T05:32:32;7.13;;;5.22;;
51692;SDS011;37777;53.066;21.638;2023-03-14T05:39:34;7.65;;;4.93;;
51692;SDS011;37777;53.066;21.638;2023-03-14T05:46:36;11.48;;;5.78;;
51692;SDS011;37777;53.066;21.638;2023-03-14T05:53:38;8.02;;;5.63;;
51692;SDS011;37777;53.066;21.638;2023-03-14T06:00:40;6.50;;;4.65;;
51692;SDS011;37777;53.066;21.638;2023-03-14T06:07:43;11.90;;;5.20;;
51692;SDS011;37777;53.066;21.638;2023-03-14T06:14:45;6.50;;;5.00;;
51692;SDS011;37777;53.066;21.638;2023-03-14T06:21:47;9.60;;;5.90;;
51692;SDS011;37777;53.066;21.638;2023-03-14T06:28:49;6.78;;;5.28;;
51692;SDS011;37777;53.066;21.638;2023-03-14T06:35:52;10.57;;;5.57;;
51692;SDS011;37777;53.066;21.638;2023-03-14T06:42:54;8.45;;;5.78;;
51692;SDS011;37777;53.066;21.638;2023-03-14T06:49:56;10.65;;;6.65;;
51692;SDS011;37777;53.066;21.638;2023-03-14T06:56:58;14.85;;;7.63;;
51692;SDS011;37777;53.066;21.638;2023-03-14T07:04:01;12.32;;;7.10;;
51692;SDS011;37777;53.066;21.638;2023-03-14T07:11:03;11.38;;;6.25;;
51692;SDS011;37777;53.066;21.638;2023-03-14T07:18:05;10.02;;;6.40;;
51692;SDS011;37777;53.066;21.638;2023-03-14T07:25:07;7.50;;;5.43;;
51692;SDS011;37777;53.066;21.638;2023-03-14T07:32:13;8.60;;;5.85;;
51692;SDS011;37777;53.066;21.638;2023-03-14T07:39:16;13.27;;;7.60;;
51692;SDS011;37777;53.066;21.638;2023-03-14T07:46:18;12.23;;;6.85;;
51692;SDS011;37777;53.066;21.638;2023-03-14T07:53:20;10.55;;;5.72;;
51692;SDS011;37777;53.066;21.638;2023-03-14T08:00:23;8.63;;;5.43;;
51692;SDS011;37777;53.066;21.638;2023-03-14T08:07:25;7.35;;;5.22;;
51692;SDS011;37777;53.066;21.638;2023-03-14T08:14:27;11.63;;;6.28;;
51692;SDS011;37777;53.066;21.638;2023-03-14T08:21:31;8.88;;;5.38;;
51692;SDS011;37777;53.066;21.638;2023-03-14T08:28:33;8.65;;;5.32;;
51692;SDS011;37777;53.066;21.638;2023-03-14T08:35:35;6.55;;;4.85;;
51692;SDS011;37777;53.066;21.638;2023-03-14T08:42:39;7.07;;;5.20;;
51692;SDS011;37777;53.066;21.638;2023-03-14T08:49:41;9.25;;;5.28;;
51692;SDS011;37777;53.066;21.638;2023-03-14T08:56:43;6.60;;;4.88;;
51692;SDS011;37777;53.066;21.638;2023-03-14T09:03:45;6.72;;;4.28;;
51692;SDS011;37777;53.066;21.638;2023-03-14T09:10:49;7.53;;;4.43;;
51692;SDS011;37777;53.066;21.638;2023-03-14T09:17:51;6.57;;;3.75;;
51692;SDS011;37777;53.066;21.638;2023-03-14T09:24:53;10.63;;;4.68;;
51692;SDS011;37777;53.066;21.638;2023-03-14T09:31:55;5.15;;;4.25;;
51692;SDS011;37777;53.066;21.638;2023-03-14T09:38:59;8.45;;;7.65;;
51692;SDS011;37777;53.066;21.638;2023-03-14T09:46:01;6.97;;;4.10;;
51692;SDS011;37777;53.066;21.638;2023-03-14T09:53:06;6.97;;;4.32;;
51692;SDS011;37777;53.066;21.638;2023-03-14T10:00:20;8.00;;;4.20;;
51692;SDS011;37777;53.066;21.638;2023-03-14T10:07:28;9.82;;;4.38;;
51692;SDS011;37777;53.066;21.638;2023-03-14T10:14:32;10.13;;;4.53;;
51692;SDS011;37777;53.066;21.638;2023-03-14T10:21:37;6.30;;;4.75;;
51692;SDS011;37777;53.066;21.638;2023-03-14T10:28:45;5.22;;;3.80;;
51692;SDS011;37777;53.066;21.638;2023-03-14T10:35:59;3.42;;;3.13;;
51692;SDS011;37777;53.066;21.638;2023-03-14T10:43:03;5.93;;;3.88;;
51692;SDS011;37777;53.066;21.638;2023-03-14T10:57:29;11.70;;;4.93;;
51692;SDS011;37777;53.066;21.638;2023-03-14T11:11:59;3.00;;;2.70;;
51692;SDS011;37777;53.066;21.638;2023-03-14T11:19:32;8.30;;;4.10;;
51692;SDS011;37777;53.066;21.638;2023-03-14T11:41:22;8.10;;;3.35;;
51692;SDS011;37777;53.066;21.638;2023-03-14T11:48:37;5.25;;;3.35;;
51692;SDS011;37777;53.066;21.638;2023-03-14T11:55:44;6.13;;;3.90;;
51692;SDS011;37777;53.066;21.638;2023-03-14T12:09:58;4.68;;;3.28;;
51692;SDS011;37777;53.066;21.638;2023-03-14T12:24:40;6.15;;;3.35;;
51692;SDS011;37777;53.066;21.638;2023-03-14T12:31:48;6.70;;;3.33;;
51692;SDS011;37777;53.066;21.638;2023-03-14T12:38:59;10.00;;;4.88;;
51692;SDS011;37777;53.066;21.638;2023-03-14T12:46:18;3.03;;;2.75;;
51692;SDS011;37777;53.066;21.638;2023-03-14T12:53:37;2.95;;;2.70;;
51692;SDS011;37777;53.066;21.638;2023-03-14T13:00:56;8.52;;;4.43;;
51692;SDS011;37777;53.066;21.638;2023-03-14T13:08:02;7.90;;;4.47;;
51692;SDS011;37777;53.066;21.638;2023-03-14T13:22:45;2.95;;;2.72;;
51692;SDS011;37777;53.066;21.638;2023-03-14T13:29:48;6.63;;;3.65;;
51692;SDS011;37777;53.066;21.638;2023-03-14T13:36:54;8.85;;;3.70;;
51692;SDS011;37777;53.066;21.638;2023-03-14T13:44:02;8.00;;;3.67;;
51692;SDS011;37777;53.066;21.638;2023-03-14T13:51:07;5.65;;;3.95;;
51692;SDS011;37777;53.066;21.638;2023-03-14T13:58:20;11.35;;;5.95;;
51692;SDS011;37777;53.066;21.638;2023-03-14T14:05:30;16.80;;;8.40;;
51692;SDS011;37777;53.066;21.638;2023-03-14T14:12:43;10.18;;;5.15;;
51692;SDS011;37777;53.066;21.638;2023-03-14T14:19:53;13.77;;;6.80;;
51692;SDS011;37777;53.066;21.638;2023-03-14T14:27:08;16.02;;;6.88;;
51692;SDS011;37777;53.066;21.638;2023-03-14T14:41:20;8.73;;;5.85;;
51692;SDS011;37777;53.066;21.638;2023-03-14T14:48:23;12.60;;;6.97;;
51692;SDS011;37777;53.066;21.638;2023-03-14T14:55:34;19.13;;;9.55;;
51692;SDS011;37777;53.066;21.638;2023-03-14T15:02:44;15.65;;;7.78;;
51692;SDS011;37777;53.066;21.638;2023-03-14T15:09:47;11.40;;;7.00;;
51692;SDS011;37777;53.066;21.638;2023-03-14T15:16:50;14.50;;;7.07;;
51692;SDS011;37777;53.066;21.638;2023-03-14T15:23:52;20.35;;;9.63;;
51692;SDS011;37777;53.066;21.638;2023-03-14T15:30:55;17.65;;;9.25;;
51692;SDS011;37777;53.066;21.638;2023-03-14T15:37:59;18.10;;;10.05;;
51692;SDS011;37777;53.066;21.638;2023-03-14T15:45:01;17.63;;;9.75;;
51692;SDS011;37777;53.066;21.638;2023-03-14T15:52:03;16.38;;;7.93;;
51692;SDS011;37777;53.066;21.638;2023-03-14T15:59:05;24.65;;;10.73;;
51692;SDS011;37777;53.066;21.638;2023-03-14T16:06:07;17.33;;;9.02;;
51692;SDS011;37777;53.066;21.638;2023-03-14T16:13:10;22.92;;;10.38;;
51692;SDS011;37777;53.066;21.638;2023-03-14T16:20:13;23.25;;;9.55;;
51692;SDS011;37777;53.066;21.638;2023-03-14T16:27:15;59.92;;;28.02;;
51692;SDS011;37777;53.066;21.638;2023-03-14T16:34:18;19.20;;;10.80;;
51692;SDS011;37777;53.066;21.638;2023-03-14T16:41:22;21.83;;;11.80;;
51692;SDS011;37777;53.066;21.638;2023-03-14T16:48:25;37.50;;;15.50;;
51692;SDS011;37777;53.066;21.638;2023-03-14T16:55:28;28.85;;;15.32;;
51692;SDS011;37777;53.066;21.638;2023-03-14T17:02:31;30.25;;;13.35;;
51692;SDS011;37777;53.066;21.638;2023-03-14T17:09:33;23.75;;;12.13;;
51692;SDS011;37777;53.066;21.638;2023-03-14T17:16:35;26.00;;;10.52;;
51692;SDS011;37777;53.066;21.638;2023-03-14T17:23:37;24.63;;;12.05;;
51692;SDS011;37777;53.066;21.638;2023-03-14T17:30:41;24.15;;;13.85;;
51692;SDS011;37777;53.066;21.638;2023-03-14T17:37:43;30.58;;;13.35;;
51692;SDS011;37777;53.066;21.638;2023-03-14T17:44:52;24.73;;;12.00;;
51692;SDS011;37777;53.066;21.638;2023-03-14T17:51:58;33.03;;;14.10;;
51692;SDS011;37777;53.066;21.638;2023-03-14T17:59:00;27.42;;;12.25;;
51692;SDS011;37777;53.066;21.638;2023-03-14T18:06:07;35.80;;;13.93;;
51692;SDS011;37777;53.066;21.638;2023-03-14T18:13:11;24.95;;;13.18;;
51692;SDS011;37777;53.066;21.638;2023-03-14T18:20:14;24.13;;;13.23;;
51692;SDS011;37777;53.066;21.638;2023-03-14T18:27:19;26.63;;;12.73;;
51692;SDS011;37777;53.066;21.638;2023-03-14T18:34:23;23.65;;;11.40;;
51692;SDS011;37777;53.066;21.638;2023-03-14T18:41:27;28.27;;;11.45;;
51692;SDS011;37777;53.066;21.638;2023-03-14T18:48:29;25.83;;;12.60;;
51692;SDS011;37777;53.066;21.638;2023-03-14T18:55:33;28.52;;;14.52;;
51692;SDS011;37777;53.066;21.638;2023-03-14T19:02:38;22.00;;;11.68;;
51692;SDS011;37777;53.066;21.638;2023-03-14T19:09:43;29.40;;;13.05;;
51692;SDS011;37777;53.066;21.638;2023-03-14T19:16:46;26.13;;;12.48;;
51692;SDS011;37777;53.066;21.638;2023-03-14T19:23:50;28.25;;;13.35;;
51692;SDS011;37777;53.066;21.638;2023-03-14T19:30:52;26.95;;;11.65;;
51692;SDS011;37777;53.066;21.638;2023-03-14T19:38:01;22.40;;;9.87;;
51692;SDS011;37777;53.066;21.638;2023-03-14T19:45:04;18.40;;;9.63;;
51692;SDS011;37777;53.066;21.638;2023-03-14T19:52:08;16.35;;;10.18;;
51692;SDS011;37777;53.066;21.638;2023-03-14T19:59:11;23.90;;;11.32;;
51692;SDS011;37777;53.066;21.638;2023-03-14T20:06:18;33.15;;;15.05;;
51692;SDS011;37777;53.066;21.638;2023-03-14T20:13:22;30.10;;;14.80;;
51692;SDS011;37777;53.066;21.638;2023-03-14T20:20:27;24.45;;;12.30;;
51692;SDS011;37777;53.066;21.638;2023-03-14T20:27:30;21.20;;;12.05;;
51692;SDS011;37777;53.066;21.638;2023-03-14T20:34:34;26.20;;;11.65;;
51692;SDS011;37777;53.066;21.638;2023-03-14T20:41:36;28.60;;;13.38;;
51692;SDS011;37777;53.066;21.638;2023-03-14T20:48:43;21.10;;;12.27;;
51692;SDS011;37777;53.066;21.638;2023-03-14T20:55:47;20.25;;;10.93;;
51692;SDS011;37777;53.066;21.638;2023-03-14T21:02:51;23.02;;;12.05;;
51692;SDS011;37777;53.066;21.638;2023-03-14T21:09:56;26.55;;;13.10;;
51692;SDS011;37777;53.066;21.638;2023-03-14T21:17:03;25.10;;;10.00;;
51692;SDS011;37777;53.066;21.638;2023-03-14T21:24:07;23.05;;;11.55;;
51692;SDS011;37777;53.066;21.638;2023-03-14T21:31:10;24.50;;;11.75;;
51692;SDS011;37777;53.066;21.638;2023-03-14T21:38:12;21.83;;;11.15;;
51692;SDS011;37777;53.066;21.638;2023-03-14T21:45:14;21.83;;;10.48;;
51692;SDS011;37777;53.066;21.638;2023-03-14T21:52:17;18.38;;;9.05;;
51692;SDS011;37777;53.066;21.638;2023-03-14T21:59:19;18.08;;;9.10;;
51692;SDS011;37777;53.066;21.638;2023-03-14T22:06:26;17.25;;;9.43;;
51692;SDS011;37777;53.066;21.638;2023-03-14T22:13:28;19.88;;;8.50;;
51692;SDS011;37777;53.066;21.638;2023-03-14T22:20:30;11.35;;;7.40;;
51692;SDS011;37777;53.066;21.638;2023-03-14T22:27:34;16.65;;;9.40;;
51692;SDS011;37777;53.066;21.638;2023-03-14T22:34:37;17.70;;;9.63;;
51692;SDS011;37777;53.066;21.638;2023-03-14T22:41:40;16.85;;;9.10;;
51692;SDS011;37777;53.066;21.638;2023-03-14T22:48:42;14.32;;;8.70;;
51692;SDS011;37777;53.066;21.638;2023-03-14T22:55:44;17.23;;;8.55;;
51692;SDS011;37777;53.066;21.638;2023-03-14T23:02:46;15.05;;;8.20;;
51692;SDS011;37777;53.066;21.638;2023-03-14T23:09:48;17.75;;;9.68;;
51692;SDS011;37777;53.066;21.638;2023-03-14T23:16:50;24.15;;;10.00;;
51692;SDS011;37777;53.066;21.638;2023-03-14T23:23:52;21.27;;;9.35;;
51692;SDS011;37777;53.066;21.638;2023-03-14T23:30:55;14.98;;;7.97;;
51692;SDS011;37777;53.066;21.638;2023-03-14T23:37:57;20.65;;;8.75;;
51692;SDS011;37777;53.066;21.638;2023-03-14T23:44:59;16.33;;;7.43;;
51692;SDS011;37777;53.066;21.638;2023-03-14T23:52:02;17.73;;;8.13;;
51692;SDS011;37777;53.066;21.638;2023-03-14T23:59:04;16.15;;;7.45;;
